createdAt,value
2019-01-15T00:08:15.056Z,63
2019-01-15T00:23:26.116Z,65.9
2019-01-15T00:38:29.105Z,72.6
2019-01-15T00:53:48.395Z,78
2019-01-15T01:09:01.468Z,71.6
2019-01-15T01:24:10.886Z,67.6
2019-01-15T01:39:21.929Z,70
2019-01-15T01:54:33.238Z,68.2
2019-01-15T02:09:44.626Z,68.3
2019-01-15T02:24:55.795Z,68.6
2019-01-15T02:40:07.145Z,67.4
2019-01-15T02:55:13.399Z,65.7
2019-01-15T03:10:30.063Z,64.5
2019-01-15T03:25:41.545Z,64.5
2019-01-15T03:40:53.044Z,64.5
2019-01-15T03:56:04.400Z,64.9
2019-01-15T04:11:15.984Z,64.2
2019-01-15T04:26:27.696Z,65
2019-01-15T04:41:38.935Z,65.9
2019-01-15T04:56:50.379Z,65.9
2019-01-15T05:11:59.304Z,70
2019-01-15T05:27:13.462Z,73.2
2019-01-15T05:42:24.691Z,78.5
2019-01-15T05:57:35.940Z,76.8
2019-01-15T06:12:39.274Z,75.7
2019-01-15T06:27:58.763Z,71
2019-01-15T06:43:10.200Z,70.4
2019-01-15T06:58:21.869Z,69.4
2019-01-15T07:13:33.296Z,67.8
2019-01-15T07:28:44.437Z,67.2
2019-01-15T07:43:56.274Z,65.9
2019-01-15T07:59:08.440Z,65.8
2019-01-15T08:14:19.577Z,64.4
2019-01-15T08:29:24.872Z,61.1
2019-01-15T08:44:43.004Z,60.6
2019-01-15T08:59:54.933Z,58.5
2019-01-15T09:15:06.716Z,57.5
2019-01-15T09:30:18.580Z,56.7
2019-01-15T09:45:30.463Z,57
2019-01-15T10:00:42.383Z,56.3
2019-01-15T10:15:54.302Z,56.1
2019-01-15T10:31:06.181Z,56.1
2019-01-15T10:46:13.907Z,58
2019-01-15T11:01:30.614Z,71.5
2019-01-15T11:16:41.670Z,74.9
2019-01-15T11:31:53.447Z,70.1
2019-01-15T11:47:05.270Z,65.7
2019-01-15T12:02:22.550Z,68.9
2019-01-15T12:17:29.214Z,71.2
2019-01-15T12:32:41.153Z,71.9
2019-01-15T12:47:53.071Z,73.5
2019-01-15T13:03:02.609Z,79.2
2019-01-15T13:18:17.430Z,83
2019-01-15T13:33:28.509Z,84
2019-01-15T13:48:40.143Z,83.6
2019-01-15T14:03:44.090Z,84.5
2019-01-15T14:19:03.660Z,85.3
2019-01-15T14:34:15.317Z,86.3
2019-01-15T14:49:26.994Z,86.9
2019-01-15T15:04:38.782Z,86.7
2019-01-15T15:19:50.544Z,86.3
2019-01-15T15:35:02.301Z,85.6
2019-01-15T15:50:18.665Z,87.5
2019-01-15T16:05:25.908Z,88.3
2019-01-15T16:20:31.960Z,88.7
2019-01-15T16:35:49.194Z,89.2
2019-01-15T16:51:00.902Z,88.3
2019-01-15T17:06:12.694Z,87.2
2019-01-15T17:21:24.562Z,85.3
2019-01-15T17:36:36.516Z,82.8
2019-01-15T17:51:48.573Z,80.7
2019-01-15T18:07:00.720Z,84.8
2019-01-15T18:22:12.758Z,89.4
2019-01-15T18:37:20.985Z,90.8
2019-01-15T18:52:36.969Z,90.1
2019-01-15T19:07:49.199Z,89.5
2019-01-15T19:23:01.283Z,88.7
2019-01-15T19:38:13.531Z,87.9
2019-01-15T19:53:25.719Z,87.4
2019-01-15T20:08:38.044Z,87.6
2019-01-15T20:23:50.294Z,86
2019-01-15T20:39:02.648Z,84
2019-01-15T20:54:12.368Z,81.4
2019-01-15T21:09:27.720Z,77
2019-01-15T21:24:40.396Z,75.7
2019-01-15T21:39:53.143Z,77
2019-01-15T21:55:07.695Z,80.1
2019-01-15T22:10:18.075Z,80.2
2019-01-15T22:25:30.527Z,82
2019-01-15T22:40:42.919Z,81.5
2019-01-15T22:55:55.348Z,83.8
2019-01-15T23:11:05.311Z,84.2
2019-01-15T23:26:20.048Z,86.1
2019-01-15T23:41:32.120Z,85.7
2019-01-15T23:56:44.324Z,86.5
